Terminal Aerodrome Forecast
Issued by NWS

Home | Current Version | Previous Version | Text Only | Print | Product List | Glossary On
Versions: 1 2 3 4 5 6 7 8 9 10 11 12 13 14 15 16 17
000
FTUS41 KBOX 281139
TAFHYA
TAF
KHYA 281139Z 2812/2912 23013G22KT P6SM BKN050
     FM281400 24012KT P6SM SCT080
     FM282300 24011G24KT P6SM SCT150
     FM290300 24009KT P6SM SCT250
     FM290500 24008KT P6SM BKN070
     FM290800 25007KT 5SM BR BKN110=

USA.gov is the U.S. government's official web portal to all federal, state and local government web resources and services.